Westlake, Louisiana
Current Conditions -  °F | °C
As of 3:15 AM on Sunday 21 Dec 2014 (Local Time) from KCWF Reporting Station
Clear Clear  
Wind Chill: 42°   Ceiling: Unl
Heat Index: 42°   Visibility: 7mi
Dew Point: 41°   Wind: 3mph
Humidity: 97%   Direction: 10°N
Pressure: 30.15"   Gusts: NA
Location:  30.24°N, 93.25°W
Report Text: KCWF 210915Z AUTO 01003KT 7SM CLR 05/05 A3015 RMK AO2 T00550050
Loading
Personal Weather Stations






























Interactive Weather Map New forecast layout! Learn more

10-Day Weather Forecast

Advertisements
Track Severe Weather on mobile